Time;durP1;ratioP1;P1;durP2;ratioP2;P2;SDS_P1;SDS_P2;PMS_P1;PMS_P2;Temp;Humidity;BMP_temperature;BMP_pressure;BME280_temperature;BME280_humidity;BME280_pressure;Samples;Min_cycle;Max_cycle;Signal;HPM_P1;HPM_P2
2023/02/04 00:01:34;;;;;;;2.50;2.20;;;6.20;99.90;;;;;;5030434;28;20395;-78
2023/02/04 00:03:59;;;;;;;2.90;2.20;;;6.10;99.90;;;;;;5031997;28;20394;-78
2023/02/04 00:06:25;;;;;;;2.30;2.10;;;6.20;99.90;;;;;;5032111;28;20391;-78
2023/02/04 00:08:51;;;;;;;3.45;2.33;;;6.30;99.90;;;;;;5035033;28;20395;-77
2023/02/04 00:11:16;;;;;;;2.70;2.05;;;6.20;99.90;;;;;;5035025;28;20379;-79
2023/02/04 00:13:42;;;;;;;3.22;2.50;;;6.20;99.90;;;;;;5040409;28;20390;-78
2023/02/04 00:16:07;;;;;;;3.30;2.30;;;6.20;99.90;;;;;;5037783;28;21108;-77
2023/02/04 00:18:33;;;;;;;2.85;2.65;;;6.20;99.90;;;;;;5035572;28;20780;-78
2023/02/04 00:20:58;;;;;;;3.40;2.22;;;6.20;99.90;;;;;;5035092;28;20823;-79
2023/02/04 00:23:24;;;;;;;2.50;2.30;;;6.20;99.90;;;;;;5035718;28;20394;-78
2023/02/04 00:25:49;;;;;;;2.47;2.28;;;6.20;99.90;;;;;;5034245;28;21135;-80
2023/02/04 00:28:15;;;;;;;3.07;2.47;;;6.20;99.90;;;;;;5035140;28;20386;-79
2023/02/04 00:30:40;;;;;;;2.30;2.10;;;6.20;99.90;;;;;;5035908;28;21154;-77
2023/02/04 00:33:06;;;;;;;5.00;2.40;;;6.10;99.90;;;;;;5039810;28;20462;-77
2023/02/04 00:35:31;;;;;;;2.87;2.67;;;5.30;99.90;;;;;;5039145;28;20399;-77
2023/02/04 00:37:57;;;;;;;2.40;2.20;;;6.30;99.90;;;;;;5041160;28;20471;-77
2023/02/04 00:40:23;;;;;;;3.30;2.50;;;6.20;99.90;;;;;;5039582;28;20959;-77
2023/02/04 00:42:48;;;;;;;2.40;2.20;;;6.20;99.90;;;;;;5034872;28;20799;-77
2023/02/04 00:45:14;;;;;;;3.30;3.00;;;6.20;99.90;;;;;;5033407;28;20873;-77
2023/02/04 00:47:39;;;;;;;3.53;2.55;;;6.20;99.90;;;;;;5032807;28;20384;-77
2023/02/04 00:50:05;;;;;;;2.72;2.53;;;6.10;99.90;;;;;;5033637;28;20960;-78
2023/02/04 00:52:31;;;;;;;2.60;2.40;;;5.80;99.90;;;;;;5033419;28;20418;-77
2023/02/04 00:54:56;;;;;;;3.10;2.70;;;6.20;99.90;;;;;;5033367;28;20796;-77
2023/02/04 00:57:22;;;;;;;3.17;2.70;;;6.00;99.90;;;;;;5032993;28;20405;-78
2023/02/04 00:59:47;;;;;;;2.40;2.20;;;6.00;99.90;;;;;;5033023;28;20405;-77
2023/02/04 01:02:13;;;;;;;2.90;2.60;;;6.20;99.90;;;;;;5033688;28;20414;-78
2023/02/04 01:04:38;;;;;;;2.90;2.50;;;6.20;99.90;;;;;;5032997;28;20399;-79
2023/02/04 01:07:04;;;;;;;3.00;2.70;;;6.00;99.90;;;;;;5034550;28;20383;-78
2023/02/04 01:09:30;;;;;;;3.10;2.40;;;6.20;99.90;;;;;;5035475;28;20395;-78
2023/02/04 01:11:55;;;;;;;3.10;2.80;;;6.20;99.90;;;;;;5035009;28;20393;-78
2023/02/04 01:14:21;;;;;;;3.25;2.95;;;6.00;99.90;;;;;;5035210;28;20387;-78
2023/02/04 01:16:48;;;;;;;2.85;2.65;;;6.20;99.90;;;;;;5033302;28;20545;-78
2023/02/04 01:19:13;;;;;;;3.10;2.90;;;6.20;99.90;;;;;;5035048;28;20434;-79
2023/02/04 01:21:39;;;;;;;4.30;2.80;;;6.20;99.90;;;;;;5035071;28;20826;-79
2023/02/04 01:24:04;;;;;;;3.22;2.92;;;6.20;99.90;;;;;;5033572;28;20394;-77
2023/02/04 01:26:30;;;;;;;3.60;3.30;;;6.20;99.90;;;;;;5035038;28;20745;-78
2023/02/04 01:28:56;;;;;;;3.70;3.40;;;6.20;99.90;;;;;;5039916;28;20464;-78
2023/02/04 01:31:21;;;;;;;5.88;3.50;;;6.00;99.90;;;;;;5043883;28;20391;-78
2023/02/04 01:33:47;;;;;;;4.20;3.63;;;6.30;99.90;;;;;;5042033;28;20424;-78
2023/02/04 01:36:12;;;;;;;3.75;3.45;;;6.20;99.90;;;;;;5041278;28;21058;-78
2023/02/04 01:38:38;;;;;;;4.07;3.67;;;6.20;99.90;;;;;;5043185;28;20411;-78
2023/02/04 01:41:04;;;;;;;3.50;3.30;;;6.30;99.90;;;;;;5040320;28;20387;-78
2023/02/04 01:43:31;;;;;;;3.77;3.40;;;6.30;99.90;;;;;;5039453;28;20379;-78
2023/02/04 01:45:56;;;;;;;4.00;3.60;;;6.40;99.90;;;;;;5039825;28;20383;-79
2023/02/04 01:48:23;;;;;;;3.90;3.50;;;6.30;99.90;;;;;;5037243;28;20477;-79
2023/02/04 01:50:55;;;;;;;3.60;3.30;;;6.30;99.90;;;;;;5039995;28;20394;-78
2023/02/04 01:53:24;;;;;;;3.70;3.40;;;6.30;99.90;;;;;;5040343;28;20460;-78
2023/02/04 01:55:50;;;;;;;4.03;3.73;;;6.30;99.90;;;;;;5032674;28;20410;-78
2023/02/04 01:58:16;;;;;;;4.40;4.00;;;6.30;99.90;;;;;;5032376;28;20403;-79
2023/02/04 02:00:42;;;;;;;4.30;3.90;;;6.10;99.90;;;;;;5034871;28;20395;-78
2023/02/04 02:03:09;;;;;;;4.10;3.80;;;6.20;99.90;;;;;;5034471;28;20391;-79
2023/02/04 02:05:49;;;;;;;3.80;3.50;;;6.10;99.90;;;;;;5030935;28;20917;-79
2023/02/04 02:08:16;;;;;;;4.13;3.75;;;6.30;99.90;;;;;;5032282;28;20409;-78
2023/02/04 02:10:45;;;;;;;4.25;3.92;;;6.20;99.90;;;;;;5034100;28;20387;-78
2023/02/04 02:13:13;;;;;;;3.97;3.67;;;6.40;99.90;;;;;;5034065;28;20390;-79
2023/02/04 02:15:40;;;;;;;3.10;2.90;;;6.40;99.90;;;;;;5031992;28;20403;-78
2023/02/04 02:18:06;;;;;;;3.42;3.13;;;6.40;99.90;;;;;;5034168;28;20930;-79
2023/02/04 02:20:32;;;;;;;3.28;2.97;;;6.50;99.90;;;;;;5034421;28;20390;-78
2023/02/04 02:23:19;;;;;;;3.20;2.90;;;6.40;99.90;;;;;;5033349;28;20395;-78
2023/02/04 02:25:45;;;;;;;3.53;3.30;;;6.40;99.90;;;;;;5034098;28;20422;-79
2023/02/04 02:28:15;;;;;;;3.50;2.90;;;6.40;99.90;;;;;;5032574;28;20391;-78
2023/02/04 02:30:44;;;;;;;3.28;2.90;;;6.40;99.90;;;;;;5033546;28;20384;-78
2023/02/04 02:33:14;;;;;;;2.90;2.70;;;6.40;99.90;;;;;;5032311;28;20394;-78
2023/02/04 02:35:44;;;;;;;3.50;3.20;;;6.40;99.90;;;;;;5040314;28;20395;-78
2023/02/04 02:38:11;;;;;;;3.10;2.90;;;6.40;99.90;;;;;;5045574;28;20413;-78
2023/02/04 02:40:37;;;;;;;3.25;2.95;;;5.80;99.90;;;;;;5039752;28;20413;-77
2023/02/04 02:43:03;;;;;;;2.83;2.55;;;6.30;99.90;;;;;;5034962;28;20769;-77
2023/02/04 02:45:32;;;;;;;2.60;2.40;;;6.40;99.90;;;;;;5039088;28;20781;-78
2023/02/04 02:48:02;;;;;;;3.00;2.80;;;6.50;99.90;;;;;;5043436;28;20526;-78
2023/02/04 02:50:29;;;;;;;2.30;2.10;;;6.40;99.90;;;;;;5046200;28;20383;-78
2023/02/04 02:52:55;;;;;;;2.30;2.10;;;6.50;99.90;;;;;;5045664;28;20399;-78
2023/02/04 02:55:23;;;;;;;2.50;2.30;;;6.50;99.90;;;;;;5043147;28;20399;-78
2023/02/04 02:57:51;;;;;;;2.60;2.40;;;6.00;99.90;;;;;;5041770;28;20407;-78
2023/02/04 03:00:28;;;;;;;2.05;1.95;;;6.40;99.90;;;;;;5035902;28;20383;-79
2023/02/04 03:02:59;;;;;;;2.40;2.20;;;6.50;99.90;;;;;;5034908;28;20394;-78
2023/02/04 03:05:27;;;;;;;2.38;2.28;;;6.50;99.90;;;;;;5066164;22;20488;-77
2023/02/04 03:07:53;;;;;;;2.50;2.30;;;6.40;99.90;;;;;;5069920;28;20380;-77
2023/02/04 03:10:18;;;;;;;2.15;2.05;;;6.50;99.90;;;;;;5069397;28;20399;-77
2023/02/04 03:12:46;;;;;;;2.70;2.50;;;6.40;99.90;;;;;;5070126;28;20750;-77
2023/02/04 03:15:12;;;;;;;2.15;2.00;;;6.50;99.90;;;;;;5070150;28;20395;-77
2023/02/04 03:17:38;;;;;;;2.40;2.20;;;6.60;99.90;;;;;;5069816;28;20372;-77
2023/02/04 03:20:04;;;;;;;2.10;1.90;;;6.30;99.90;;;;;;5068878;28;20391;-77
2023/02/04 03:22:30;;;;;;;2.45;2.00;;;6.60;99.90;;;;;;5069002;28;20391;-77
2023/02/04 03:24:57;;;;;;;2.17;1.97;;;6.60;99.90;;;;;;5070144;28;20387;-77
2023/02/04 03:27:23;;;;;;;2.40;1.85;;;6.60;99.90;;;;;;5070039;28;20376;-77
2023/02/04 03:29:48;;;;;;;4.45;2.50;;;6.70;99.90;;;;;;5069278;28;20388;-77
2023/02/04 03:32:14;;;;;;;1.90;1.80;;;6.60;99.90;;;;;;5070828;28;20395;-77
2023/02/04 03:34:40;;;;;;;2.40;2.20;;;6.60;99.90;;;;;;5071214;28;20441;-77
2023/02/04 03:37:05;;;;;;;2.03;1.83;;;6.40;99.90;;;;;;5070784;28;20455;-78
2023/02/04 03:39:31;;;;;;;2.60;2.40;;;6.50;99.90;;;;;;5072050;28;20500;-78
2023/02/04 03:41:56;;;;;;;2.77;2.37;;;6.40;99.90;;;;;;5077186;28;20422;-77
2023/02/04 03:44:25;;;;;;;2.60;2.40;;;6.50;99.90;;;;;;5077660;28;20410;-77
2023/02/04 03:46:54;;;;;;;2.70;2.50;;;6.50;99.90;;;;;;5076329;28;20413;-77
2023/02/04 03:49:23;;;;;;;2.60;2.40;;;7.20;99.90;;;;;;5082051;28;20467;-77
2023/02/04 03:51:49;;;;;;;2.55;2.35;;;6.50;99.90;;;;;;5083500;28;20958;-77
2023/02/04 03:54:14;;;;;;;3.05;2.75;;;6.50;99.90;;;;;;5082472;28;20392;-78
2023/02/04 03:56:40;;;;;;;2.63;2.30;;;6.60;99.90;;;;;;5081802;28;20384;-78
2023/02/04 03:59:05;;;;;;;2.50;2.30;;;6.60;99.90;;;;;;5079300;28;20920;-78
2023/02/04 04:01:31;;;;;;;3.35;2.20;;;6.60;99.90;;;;;;5081772;28;20379;-78
2023/02/04 04:03:57;;;;;;;2.45;2.25;;;6.90;99.90;;;;;;5082642;28;20372;-78
2023/02/04 04:06:22;;;;;;;2.70;2.50;;;6.60;99.90;;;;;;5080802;28;20406;-78
2023/02/04 04:08:48;;;;;;;2.20;2.00;;;6.60;99.90;;;;;;5082164;28;20459;-78
2023/02/04 04:11:14;;;;;;;3.10;2.33;;;6.50;99.90;;;;;;5081964;28;20387;-78
2023/02/04 04:13:39;;;;;;;2.38;2.17;;;6.70;99.90;;;;;;5081562;28;20396;-78
2023/02/04 04:16:05;;;;;;;3.30;2.22;;;6.60;99.90;;;;;;5081458;28;20479;-78
2023/02/04 04:18:31;;;;;;;2.40;2.20;;;6.60;99.90;;;;;;5082578;28;20772;-78
2023/02/04 04:20:58;;;;;;;2.97;2.40;;;6.60;99.90;;;;;;5080836;28;20471;-78
2023/02/04 04:23:23;;;;;;;2.97;2.40;;;6.70;99.90;;;;;;5081911;28;20902;-78
2023/02/04 04:25:49;;;;;;;2.60;2.40;;;6.40;99.90;;;;;;5077847;28;20391;-78
2023/02/04 04:28:14;;;;;;;2.40;2.20;;;6.70;99.90;;;;;;5080246;28;20383;-78
2023/02/04 04:30:40;;;;;;;2.97;2.50;;;6.70;99.90;;;;;;5079251;28;20399;-78
2023/02/04 04:33:05;;;;;;;2.50;2.30;;;6.70;99.90;;;;;;5079773;28;20478;-78
2023/02/04 04:35:31;;;;;;;2.97;2.67;;;6.80;99.90;;;;;;5085954;28;20380;-80
2023/02/04 04:37:56;;;;;;;2.43;2.23;;;6.80;99.90;;;;;;5076098;28;20408;-78
2023/02/04 04:40:22;;;;;;;2.50;2.30;;;6.80;99.90;;;;;;5076983;28;20418;-77
2023/02/04 04:42:47;;;;;;;3.00;2.20;;;6.60;99.90;;;;;;5076535;28;20415;-77
2023/02/04 04:45:13;;;;;;;2.40;2.10;;;6.90;99.90;;;;;;5076584;28;20437;-75
2023/02/04 04:47:39;;;;;;;2.60;2.40;;;7.30;99.90;;;;;;5075865;28;20469;-75
2023/02/04 04:50:05;;;;;;;2.80;2.57;;;6.80;99.90;;;;;;5075213;28;20449;-75
2023/02/04 04:52:30;;;;;;;2.57;2.37;;;6.70;99.90;;;;;;5072299;28;20418;-75
2023/02/04 04:54:56;;;;;;;2.50;2.20;;;6.80;99.90;;;;;;5072798;28;20821;-75
2023/02/04 04:57:21;;;;;;;2.70;2.30;;;6.70;99.90;;;;;;5071949;28;20745;-75
2023/02/04 04:59:47;;;;;;;3.73;2.60;;;6.80;99.90;;;;;;5073107;28;20407;-76
2023/02/04 05:02:12;;;;;;;2.50;2.30;;;6.70;99.90;;;;;;5072184;28;20464;-76
2023/02/04 05:04:37;;;;;;;2.85;2.25;;;6.80;99.90;;;;;;5073340;28;20383;-75
2023/02/04 05:07:03;;;;;;;2.90;2.60;;;6.80;99.90;;;;;;5063338;28;20404;-75
2023/02/04 05:09:29;;;;;;;3.90;2.60;;;6.80;99.90;;;;;;5073363;28;20380;-76
2023/02/04 05:11:55;;;;;;;2.45;2.25;;;6.90;99.90;;;;;;5073003;28;20398;-75
2023/02/04 05:14:20;;;;;;;3.00;2.43;;;6.80;99.90;;;;;;5071682;28;20379;-76
2023/02/04 05:16:46;;;;;;;2.80;2.50;;;6.90;99.90;;;;;;5072532;28;20396;-75
2023/02/04 05:19:11;;;;;;;2.80;2.60;;;8.70;99.90;;;;;;5071295;28;20766;-76
2023/02/04 05:21:37;;;;;;;2.90;2.35;;;6.90;99.90;;;;;;5072496;28;20419;-75
2023/02/04 05:24:05;;;;;;;2.88;2.67;;;6.70;99.90;;;;;;5072652;28;20741;-76
2023/02/04 05:26:31;;;;;;;2.90;2.70;;;7.00;99.90;;;;;;5071286;28;20404;-76
2023/02/04 05:28:59;;;;;;;3.50;2.42;;;6.50;99.90;;;;;;5072067;28;20609;-76
2023/02/04 05:31:24;;;;;;;3.50;2.58;;;6.90;99.90;;;;;;5072057;28;20398;-76
2023/02/04 05:33:50;;;;;;;3.83;2.80;;;7.00;99.90;;;;;;5072410;28;20828;-76
2023/02/04 05:36:16;;;;;;;2.80;2.60;;;7.00;99.90;;;;;;5071847;28;20449;-76
2023/02/04 05:38:42;;;;;;;2.97;2.78;;;7.00;99.90;;;;;;5071185;28;20816;-76
2023/02/04 05:41:07;;;;;;;3.25;2.95;;;7.00;99.90;;;;;;5070870;28;20395;-76
2023/02/04 05:43:34;;;;;;;2.92;2.60;;;6.90;99.90;;;;;;5071374;28;20376;-78
2023/02/04 05:45:59;;;;;;;3.45;3.00;;;7.00;99.90;;;;;;5070781;28;20459;-77
2023/02/04 05:48:25;;;;;;;3.65;3.25;;;7.00;99.90;;;;;;5072197;28;20419;-77
2023/02/04 05:50:51;;;;;;;3.78;3.40;;;7.00;99.90;;;;;;5071999;28;20399;-77
2023/02/04 05:53:16;;;;;;;3.60;3.30;;;7.00;99.90;;;;;;5072136;28;20441;-77
2023/02/04 05:55:42;;;;;;;3.10;2.90;;;7.00;99.90;;;;;;5071694;28;20999;-77
2023/02/04 05:58:07;;;;;;;4.00;3.50;;;6.90;99.90;;;;;;5070494;28;20447;-77
2023/02/04 06:00:33;;;;;;;3.83;3.53;;;6.80;99.90;;;;;;5073168;28;20383;-77
2023/02/04 06:02:59;;;;;;;4.60;4.20;;;6.90;99.90;;;;;;5072384;28;20387;-78
2023/02/04 06:05:24;;;;;;;3.80;3.10;;;6.90;99.90;;;;;;5071301;28;20396;-77
2023/02/04 06:07:50;;;;;;;3.60;3.30;;;6.80;99.90;;;;;;5072087;28;20749;-77
2023/02/04 06:10:16;;;;;;;3.60;3.22;;;7.00;99.90;;;;;;5071731;28;20429;-77
2023/02/04 06:12:41;;;;;;;4.30;3.80;;;7.00;99.90;;;;;;5070680;28;20478;-77
2023/02/04 06:15:07;;;;;;;4.73;3.47;;;7.00;99.90;;;;;;5071492;28;20884;-77
2023/02/04 06:17:33;;;;;;;3.78;3.10;;;7.00;99.90;;;;;;5071560;28;20742;-78
2023/02/04 06:19:58;;;;;;;4.10;3.70;;;7.00;99.90;;;;;;5074926;28;20386;-78
2023/02/04 06:22:25;;;;;;;3.57;3.17;;;6.80;99.90;;;;;;5075236;28;20392;-77
2023/02/04 06:24:51;;;;;;;4.20;3.80;;;6.90;99.90;;;;;;5074097;28;20796;-78
2023/02/04 06:27:22;;;;;;;4.20;3.80;;;6.90;99.90;;;;;;5074054;28;20467;-78
2023/02/04 06:29:51;;;;;;;6.45;4.15;;;7.00;99.90;;;;;;5071595;28;20383;-77
2023/02/04 06:32:17;;;;;;;4.07;3.60;;;6.90;99.90;;;;;;5071519;28;20804;-77
2023/02/04 06:34:43;;;;;;;4.35;3.70;;;6.90;99.90;;;;;;5070095;28;20392;-78
2023/02/04 06:37:08;;;;;;;3.60;3.30;;;6.90;99.90;;;;;;5069779;28;20513;-77
2023/02/04 06:39:34;;;;;;;3.45;3.15;;;6.70;99.90;;;;;;5071802;28;20403;-78
2023/02/04 06:41:59;;;;;;;3.57;3.23;;;7.00;99.90;;;;;;5075587;28;20399;-77
2023/02/04 06:44:25;;;;;;;4.17;3.37;;;7.00;99.90;;;;;;5072447;28;20392;-77
2023/02/04 06:46:50;;;;;;;3.60;3.30;;;6.90;99.90;;;;;;5070845;28;20419;-78
2023/02/04 06:49:16;;;;;;;3.13;2.70;;;7.00;99.90;;;;;;5072385;28;20384;-78
2023/02/04 06:51:41;;;;;;;3.22;2.92;;;6.90;99.90;;;;;;5069877;28;20395;-77
2023/02/04 06:54:07;;;;;;;3.83;3.20;;;7.00;99.90;;;;;;5071076;28;20384;-78
2023/02/04 06:56:32;;;;;;;3.63;3.33;;;7.00;99.90;;;;;;5070215;28;20735;-77
2023/02/04 06:58:58;;;;;;;4.30;3.80;;;6.90;99.90;;;;;;5069708;28;20391;-77
2023/02/04 07:01:23;;;;;;;3.20;2.90;;;7.00;99.90;;;;;;5071111;28;20380;-77
2023/02/04 07:03:49;;;;;;;4.10;3.70;;;7.00;99.90;;;;;;5069803;28;20383;-77
2023/02/04 07:06:15;;;;;;;4.20;3.80;;;6.80;99.90;;;;;;5060330;28;20397;-77
2023/02/04 07:08:40;;;;;;;3.63;3.33;;;7.00;99.90;;;;;;5055812;28;20452;-77
2023/02/04 07:11:06;;;;;;;8.93;4.90;;;6.80;99.90;;;;;;5070833;28;20879;-78
2023/02/04 07:13:31;;;;;;;4.00;3.65;;;7.00;99.90;;;;;;5068929;28;20395;-77
2023/02/04 07:15:57;;;;;;;4.97;3.60;;;7.00;99.90;;;;;;5085814;28;20479;-77
2023/02/04 07:18:22;;;;;;;3.33;3.03;;;6.90;99.90;;;;;;5062458;28;20765;-77
2023/02/04 07:20:48;;;;;;;2.95;2.65;;;7.00;99.90;;;;;;5062280;28;20494;-76
2023/02/04 07:23:13;;;;;;;3.70;2.90;;;7.00;99.90;;;;;;5069951;28;20398;-77
2023/02/04 07:25:39;;;;;;;3.30;3.00;;;7.00;99.90;;;;;;5068560;28;20380;-77
2023/02/04 07:28:05;;;;;;;4.50;3.20;;;7.00;99.90;;;;;;5068865;28;20408;-77
2023/02/04 07:30:31;;;;;;;3.50;3.20;;;7.00;99.90;;;;;;5070159;28;20406;-77
2023/02/04 07:32:56;;;;;;;5.20;3.30;;;7.00;99.90;;;;;;5070381;28;20385;-77
2023/02/04 07:35:23;;;;;;;4.10;3.70;;;7.10;99.90;;;;;;5070023;28;20415;-77
2023/02/04 07:37:49;;;;;;;3.53;3.10;;;7.10;99.90;;;;;;5070094;28;20444;-76
2023/02/04 07:40:14;;;;;;;3.65;3.13;;;7.00;99.90;;;;;;5070261;28;20379;-77
2023/02/04 07:42:40;;;;;;;3.90;3.60;;;6.90;99.90;;;;;;5070055;28;20387;-77
2023/02/04 07:45:06;;;;;;;3.72;3.42;;;7.10;99.90;;;;;;5070126;28;20941;-76
2023/02/04 07:47:32;;;;;;;3.83;3.53;;;7.10;99.90;;;;;;5070004;28;20483;-77
2023/02/04 07:49:57;;;;;;;4.07;3.67;;;7.10;99.90;;;;;;5070027;28;20757;-77
2023/02/04 07:52:24;;;;;;;4.40;4.00;;;7.10;99.90;;;;;;5069965;28;20402;-77
2023/02/04 07:54:51;;;;;;;4.75;4.25;;;7.10;99.90;;;;;;5069727;28;20457;-76
2023/02/04 07:57:17;;;;;;;4.50;4.10;;;7.10;99.90;;;;;;5069908;28;20415;-77
2023/02/04 07:59:42;;;;;;;6.10;5.50;;;7.10;99.90;;;;;;5069994;28;20411;-77
2023/02/04 08:02:09;;;;;;;5.43;4.93;;;7.10;99.90;;;;;;5069923;28;20399;-77
2023/02/04 08:04:36;;;;;;;5.90;5.30;;;6.80;99.90;;;;;;5069846;28;20376;-77
2023/02/04 08:07:02;;;;;;;6.00;5.28;;;6.90;99.90;;;;;;5053064;28;20400;-76
2023/02/04 08:09:28;;;;;;;6.50;4.47;;;6.80;99.90;;;;;;5057207;28;20387;-77
2023/02/04 08:11:53;;;;;;;6.33;5.10;;;7.20;99.90;;;;;;5069384;28;20391;-76
2023/02/04 08:14:19;;;;;;;5.40;4.20;;;7.30;99.90;;;;;;5068339;28;20423;-76
2023/02/04 08:16:44;;;;;;;6.30;5.07;;;7.00;99.90;;;;;;5068852;28;20387;-77
2023/02/04 08:19:10;;;;;;;5.15;4.63;;;7.20;99.90;;;;;;5069831;28;20477;-76
2023/02/04 08:21:36;;;;;;;5.20;4.70;;;7.20;99.90;;;;;;5069758;28;20376;-77
2023/02/04 08:24:01;;;;;;;4.80;4.40;;;7.00;99.90;;;;;;5069711;28;20455;-77
2023/02/04 08:26:27;;;;;;;5.30;4.60;;;7.20;99.90;;;;;;5069229;28;20442;-76
2023/02/04 08:28:52;;;;;;;5.80;5.30;;;7.20;99.90;;;;;;5073011;28;20387;-76
2023/02/04 08:31:18;;;;;;;5.17;4.67;;;6.50;99.90;;;;;;5071779;28;20388;-76
2023/02/04 08:33:43;;;;;;;5.30;4.80;;;7.10;99.90;;;;;;5073543;28;20391;-76
2023/02/04 08:36:09;;;;;;;5.00;4.60;;;7.20;99.90;;;;;;5073025;28;20397;-76
2023/02/04 08:38:34;;;;;;;5.03;4.63;;;7.20;99.90;;;;;;5073423;28;20442;-76
2023/02/04 08:41:00;;;;;;;4.37;3.97;;;7.20;99.90;;;;;;5073992;28;20384;-76
2023/02/04 08:43:26;;;;;;;5.77;5.27;;;7.10;99.90;;;;;;5073533;28;20765;-76
2023/02/04 08:45:51;;;;;;;6.85;6.18;;;7.30;99.90;;;;;;5073018;28;20390;-77
2023/02/04 08:48:17;;;;;;;6.67;5.97;;;7.20;99.90;;;;;;5072917;28;20380;-76
2023/02/04 08:50:42;;;;;;;7.43;6.73;;;7.20;99.90;;;;;;5071999;28;20379;-76
2023/02/04 08:53:08;;;;;;;7.77;6.97;;;7.20;99.90;;;;;;5071556;28;20387;-76
2023/02/04 08:55:33;;;;;;;6.20;5.70;;;7.00;99.90;;;;;;5071334;28;20943;-76
2023/02/04 08:58:00;;;;;;;7.10;6.40;;;7.00;99.90;;;;;;5073320;28;20409;-76
2023/02/04 09:00:26;;;;;;;7.43;6.72;;;7.20;99.90;;;;;;5072435;28;20861;-76
2023/02/04 09:02:51;;;;;;;7.28;6.57;;;7.10;99.90;;;;;;5072563;28;20398;-76
2023/02/04 09:05:17;;;;;;;7.82;7.03;;;7.00;99.90;;;;;;5072626;28;20744;-76
2023/02/04 09:07:42;;;;;;;7.70;7.00;;;7.10;99.90;;;;;;5072101;28;20420;-76
2023/02/04 09:10:08;;;;;;;7.87;7.07;;;7.10;99.90;;;;;;5072930;28;20372;-76
2023/02/04 09:12:34;;;;;;;7.77;6.97;;;6.90;99.90;;;;;;5070927;28;20388;-77
2023/02/04 09:14:59;;;;;;;7.90;7.20;;;7.00;99.90;;;;;;5086137;28;20932;-76
2023/02/04 09:17:25;;;;;;;7.67;6.87;;;6.90;99.90;;;;;;5071965;28;20412;-77
2023/02/04 09:19:50;;;;;;;6.10;5.50;;;6.80;99.90;;;;;;5071976;28;20496;-77
2023/02/04 09:22:16;;;;;;;6.37;5.77;;;7.10;99.90;;;;;;5070327;28;20385;-76
2023/02/04 09:24:41;;;;;;;6.97;6.27;;;7.00;99.90;;;;;;5072618;28;20494;-77
2023/02/04 09:27:07;;;;;;;7.10;6.40;;;6.90;99.90;;;;;;5072183;28;20434;-77
2023/02/04 09:29:32;;;;;;;7.57;6.78;;;6.90;99.90;;;;;;5072689;28;20773;-77
2023/02/04 09:31:58;;;;;;;7.47;6.78;;;6.60;99.90;;;;;;5072137;28;20400;-77
2023/02/04 09:34:24;;;;;;;7.20;6.50;;;7.00;99.90;;;;;;5070369;28;20395;-77
2023/02/04 09:36:49;;;;;;;6.70;6.10;;;7.00;99.90;;;;;;5071566;28;20395;-77
2023/02/04 09:39:15;;;;;;;5.80;5.20;;;6.90;99.90;;;;;;5067692;28;20441;-77
2023/02/04 09:41:41;;;;;;;6.90;6.03;;;6.80;99.90;;;;;;5069265;28;20414;-77
2023/02/04 09:44:14;;;;;;;5.00;4.60;;;6.80;99.90;;;;;;5072080;28;20372;-77
2023/02/04 09:46:51;;;;;;;4.38;3.97;;;7.00;99.90;;;;;;5071631;28;20395;-77
2023/02/04 09:49:17;;;;;;;4.15;3.75;;;7.00;99.90;;;;;;5065081;28;20394;-76
2023/02/04 09:51:44;;;;;;;3.50;3.20;;;7.10;99.90;;;;;;5062496;28;20411;-76
2023/02/04 09:54:13;;;;;;;5.20;4.57;;;7.20;99.90;;;;;;5065136;28;20433;-77
2023/02/04 09:56:39;;;;;;;4.50;4.10;;;7.30;99.90;;;;;;5054774;28;20390;-76
2023/02/04 09:59:14;;;;;;;4.97;4.47;;;7.20;99.90;;;;;;5071606;28;20486;-76
2023/02/04 10:01:40;;;;;;;4.18;3.80;;;7.40;99.90;;;;;;5071421;28;20479;-76
2023/02/04 10:04:13;;;;;;;4.82;4.32;;;7.50;99.90;;;;;;5071679;28;20462;-76
2023/02/04 10:06:40;;;;;;;5.10;4.60;;;7.40;99.90;;;;;;5059983;28;20501;-76
2023/02/04 10:09:08;;;;;;;5.47;4.97;;;7.40;99.90;;;;;;5071554;28;20461;-76
2023/02/04 10:11:37;;;;;;;4.63;4.13;;;7.30;99.90;;;;;;5071394;28;20441;-76
2023/02/04 10:14:02;;;;;;;4.73;4.13;;;7.30;99.90;;;;;;5069975;28;20458;-76
2023/02/04 10:16:33;;;;;;;4.43;4.03;;;7.30;99.90;;;;;;5070831;28;20459;-76
2023/02/04 10:19:02;;;;;;;4.50;4.10;;;7.30;99.90;;;;;;5053950;28;20404;-77
2023/02/04 10:21:31;;;;;;;4.25;3.85;;;7.50;99.90;;;;;;5062646;28;20464;-76
2023/02/04 10:23:59;;;;;;;4.10;3.50;;;7.50;99.90;;;;;;5063265;28;21128;-76
2023/02/04 10:26:28;;;;;;;3.80;3.50;;;7.50;99.90;;;;;;5054603;28;20398;-77
2023/02/04 10:29:01;;;;;;;4.38;3.97;;;7.60;99.90;;;;;;5053378;28;20411;-76
2023/02/04 10:31:36;;;;;;;4.18;3.78;;;7.60;99.90;;;;;;5070919;28;20915;-76
2023/02/04 10:34:38;;;;;;;4.30;4.00;;;7.70;99.90;;;;;;5069597;28;20419;-76
2023/02/04 10:37:22;;;;;;;4.50;4.10;;;7.50;99.90;;;;;;5070362;28;20387;-76
2023/02/04 10:39:48;;;;;;;4.70;4.30;;;7.60;99.90;;;;;;5069147;28;20765;-76
2023/02/04 10:42:26;;;;;;;4.68;4.28;;;7.70;99.90;;;;;;5060429;28;20387;-77
2023/02/04 10:44:52;;;;;;;5.00;4.50;;;7.70;99.90;;;;;;5054199;28;20870;-76
2023/02/04 10:47:27;;;;;;;5.50;5.00;;;7.70;99.90;;;;;;5070155;28;20386;-76
2023/02/04 10:49:56;;;;;;;4.82;4.43;;;7.70;99.90;;;;;;5070223;28;20450;-76
2023/02/04 10:52:29;;;;;;;4.50;4.10;;;7.80;99.90;;;;;;5070521;28;20764;-77
2023/02/04 10:54:54;;;;;;;4.40;4.00;;;7.90;99.90;;;;;;5066314;28;20414;-76
2023/02/04 10:57:25;;;;;;;4.20;3.90;;;7.80;99.90;;;;;;5070359;28;20478;-76
2023/02/04 10:59:54;;;;;;;3.80;3.50;;;8.10;99.90;;;;;;5065981;28;20500;-76
2023/02/04 11:02:44;;;;;;;3.60;3.30;;;8.10;99.90;;;;;;5069869;28;20452;-77
2023/02/04 11:05:14;;;;;;;3.28;3.08;;;8.20;99.90;;;;;;5067144;28;20395;-76
2023/02/04 11:07:39;;;;;;;2.95;2.75;;;8.30;99.90;;;;;;5063299;28;20403;-77
2023/02/04 11:10:10;;;;;;;4.97;3.30;;;8.40;99.90;;;;;;5069429;28;20807;-77
2023/02/04 11:12:40;;;;;;;4.13;3.78;;;8.50;99.90;;;;;;5065960;28;20395;-77
2023/02/04 11:15:26;;;;;;;4.40;4.10;;;8.20;99.90;;;;;;5070313;28;20448;-77
2023/02/04 11:18:03;;;;;;;3.13;2.83;;;8.50;99.90;;;;;;5070223;28;20411;-77
2023/02/04 11:20:33;;;;;;;3.80;3.50;;;8.70;99.90;;;;;;5069263;28;20471;-76
2023/02/04 11:23:14;;;;;;;3.20;2.90;;;9.10;99.90;;;;;;5068434;28;20448;-76
2023/02/04 11:25:40;;;;;;;3.50;3.20;;;9.20;99.90;;;;;;5050154;28;20409;-77
2023/02/04 11:28:14;;;;;;;3.50;3.20;;;9.60;99.90;;;;;;5049141;28;20918;-76
2023/02/04 11:30:40;;;;;;;3.20;2.80;;;9.50;99.90;;;;;;5050504;28;20397;-76
2023/02/04 11:33:20;;;;;;;2.63;2.43;;;10.00;99.90;;;;;;5049107;28;20390;-76
2023/02/04 11:36:00;;;;;;;2.37;2.03;;;10.20;99.90;;;;;;5058945;28;20479;-76
2023/02/04 11:38:29;;;;;;;2.38;1.80;;;10.70;99.90;;;;;;5070166;28;20404;-77
2023/02/04 11:40:56;;;;;;;1.80;1.70;;;10.70;99.90;;;;;;5070345;28;20444;-77
2023/02/04 11:43:22;;;;;;;2.20;2.00;;;10.70;99.90;;;;;;5070190;28;20457;-77
2023/02/04 11:45:58;;;;;;;3.20;2.00;;;10.00;99.90;;;;;;5070082;28;20400;-77
2023/02/04 11:48:24;;;;;;;2.40;2.03;;;10.00;99.90;;;;;;5069310;28;20459;-77
2023/02/04 11:50:58;;;;;;;5.88;2.10;;;9.90;99.90;;;;;;5070144;28;20474;-77
2023/02/04 11:53:30;;;;;;;2.10;1.90;;;9.50;99.90;;;;;;5068656;28;20392;-77
2023/02/04 11:55:57;;;;;;;2.50;2.10;;;9.50;99.90;;;;;;5069915;28;20391;-77
2023/02/04 11:58:24;;;;;;;3.97;2.03;;;9.50;99.90;;;;;;5070061;28;20769;-77
2023/02/04 12:00:51;;;;;;;4.80;1.90;;;9.50;99.90;;;;;;5070946;28;20411;-77
2023/02/04 12:03:32;;;;;;;3.58;1.98;;;9.10;99.90;;;;;;5074547;28;20388;-77
2023/02/04 12:05:58;;;;;;;1.95;1.83;;;9.00;99.90;;;;;;5069598;28;22395;-77
2023/02/04 12:08:30;;;;;;;2.00;1.77;;;9.60;99.90;;;;;;5064196;28;20404;-77
2023/02/04 12:11:04;;;;;;;2.92;1.60;;;9.50;99.90;;;;;;5060267;28;20423;-76
2023/02/04 12:13:30;;;;;;;1.73;1.52;;;9.30;99.90;;;;;;5070630;28;20391;-76
2023/02/04 12:16:03;;;;;;;2.90;1.80;;;10.00;99.90;;;;;;5067761;28;20412;-76
2023/02/04 12:18:30;;;;;;;2.92;1.80;;;9.90;99.90;;;;;;5066128;28;20931;-76
2023/02/04 12:20:57;;;;;;;1.90;1.70;;;9.70;99.90;;;;;;5073643;28;20379;-76
2023/02/04 12:23:24;;;;;;;2.50;1.60;;;9.20;99.90;;;;;;5073032;28;20873;-76
2023/02/04 12:25:49;;;;;;;2.10;1.90;;;9.70;99.90;;;;;;5073372;28;20380;-76
2023/02/04 12:28:15;;;;;;;2.20;1.52;;;9.70;99.90;;;;;;5073026;28;20399;-76
2023/02/04 12:30:41;;;;;;;3.05;2.08;;;9.20;99.90;;;;;;5071319;28;20422;-76
2023/02/04 12:33:06;;;;;;;2.13;1.90;;;9.20;99.90;;;;;;5072113;28;20953;-77
2023/02/04 12:35:33;;;;;;;2.22;2.00;;;9.20;99.90;;;;;;5073055;28;20394;-75
2023/02/04 12:37:58;;;;;;;2.47;1.80;;;9.10;99.90;;;;;;5071961;28;20388;-76
2023/02/04 12:40:24;;;;;;;3.70;1.90;;;9.10;99.90;;;;;;5073481;28;20390;-75
2023/02/04 12:42:49;;;;;;;2.88;1.90;;;9.00;99.90;;;;;;5073015;28;20388;-76
2023/02/04 12:45:16;;;;;;;2.50;2.10;;;8.90;99.90;;;;;;5073103;28;20391;-76
2023/02/04 12:47:43;;;;;;;5.22;2.80;;;9.20;99.90;;;;;;5072977;28;20399;-76
2023/02/04 12:50:10;;;;;;;3.92;2.60;;;8.70;99.90;;;;;;5073100;28;20399;-75
2023/02/04 12:52:37;;;;;;;3.13;2.38;;;8.80;99.90;;;;;;5073213;28;20845;-76
2023/02/04 12:55:03;;;;;;;3.33;2.40;;;8.60;99.90;;;;;;5072832;28;20399;-76
2023/02/04 12:57:30;;;;;;;4.80;3.10;;;8.70;99.90;;;;;;5072309;28;20396;-76